sensor_id;sensor_type;location;lat;lon;timestamp;P1;durP1;ratioP1;P2;durP2;ratioP2
11082;SDS011;5595;50.186;8.468;2023-08-17T00:54:46;0.30;;;0.30;;
11082;SDS011;5595;50.186;8.468;2023-08-17T00:57:12;0.32;;;0.30;;
11082;SDS011;5595;50.186;8.468;2023-08-17T00:59:40;0.30;;;0.30;;
11082;SDS011;5595;50.186;8.468;2023-08-17T01:02:07;0.43;;;0.30;;
11082;SDS011;5595;50.186;8.468;2023-08-17T01:04:35;0.57;;;0.40;;
11082;SDS011;5595;50.186;8.468;2023-08-17T01:07:01;0.40;;;0.40;;
11082;SDS011;5595;50.186;8.468;2023-08-17T01:09:28;0.25;;;0.25;;
11082;SDS011;5595;50.186;8.468;2023-08-17T01:11:58;0.32;;;0.28;;
11082;SDS011;5595;50.186;8.468;2023-08-17T01:14:32;0.40;;;0.40;;
11082;SDS011;5595;50.186;8.468;2023-08-17T01:17:06;3.40;;;0.30;;
11082;SDS011;5595;50.186;8.468;2023-08-17T01:19:37;0.30;;;0.30;;
11082;SDS011;5595;50.186;8.468;2023-08-17T01:22:08;1.08;;;0.40;;
11082;SDS011;5595;50.186;8.468;2023-08-17T01:24:38;0.82;;;0.32;;
11082;SDS011;5595;50.186;8.468;2023-08-17T01:27:05;2.75;;;0.43;;
11082;SDS011;5595;50.186;8.468;2023-08-17T01:29:31;1.30;;;0.40;;
11082;SDS011;5595;50.186;8.468;2023-08-17T01:32:01;3.25;;;0.47;;
11082;SDS011;5595;50.186;8.468;2023-08-17T01:34:35;0.30;;;0.30;;
11082;SDS011;5595;50.186;8.468;2023-08-17T01:37:06;0.60;;;0.47;;
11082;SDS011;5595;50.186;8.468;2023-08-17T01:39:35;1.85;;;0.38;;
11082;SDS011;5595;50.186;8.468;2023-08-17T01:42:05;0.32;;;0.32;;
11082;SDS011;5595;50.186;8.468;2023-08-17T01:44:33;0.57;;;0.40;;
11082;SDS011;5595;50.186;8.468;2023-08-17T01:47:00;0.47;;;0.47;;
11082;SDS011;5595;50.186;8.468;2023-08-17T01:49:28;0.35;;;0.30;;
11082;SDS011;5595;50.186;8.468;2023-08-17T01:51:55;0.63;;;0.50;;
11082;SDS011;5595;50.186;8.468;2023-08-17T01:54:22;0.40;;;0.35;;
11082;SDS011;5595;50.186;8.468;2023-08-17T01:56:51;0.45;;;0.40;;
11082;SDS011;5595;50.186;8.468;2023-08-17T01:59:18;0.65;;;0.50;;
11082;SDS011;5595;50.186;8.468;2023-08-17T02:01:45;0.52;;;0.30;;
11082;SDS011;5595;50.186;8.468;2023-08-17T02:04:11;1.05;;;0.50;;
11082;SDS011;5595;50.186;8.468;2023-08-17T02:06:38;0.30;;;0.30;;
11082;SDS011;5595;50.186;8.468;2023-08-17T02:09:05;0.50;;;0.50;;
11082;SDS011;5595;50.186;8.468;2023-08-17T02:11:32;0.50;;;0.50;;
11082;SDS011;5595;50.186;8.468;2023-08-17T02:14:00;0.73;;;0.40;;
11082;SDS011;5595;50.186;8.468;2023-08-17T02:16:27;0.63;;;0.40;;
11082;SDS011;5595;50.186;8.468;2023-08-17T02:21:30;0.40;;;0.40;;
11082;SDS011;5595;50.186;8.468;2023-08-17T02:23:57;1.27;;;0.50;;
11082;SDS011;5595;50.186;8.468;2023-08-17T02:26:24;0.60;;;0.60;;
11082;SDS011;5595;50.186;8.468;2023-08-17T02:28:50;0.38;;;0.38;;
11082;SDS011;5595;50.186;8.468;2023-08-17T02:31:19;0.40;;;0.40;;
11082;SDS011;5595;50.186;8.468;2023-08-17T02:33:45;0.30;;;0.30;;
11082;SDS011;5595;50.186;8.468;2023-08-17T02:36:12;0.57;;;0.40;;
11082;SDS011;5595;50.186;8.468;2023-08-17T02:38:39;0.40;;;0.40;;
11082;SDS011;5595;50.186;8.468;2023-08-17T02:41:06;0.98;;;0.40;;
11082;SDS011;5595;50.186;8.468;2023-08-17T02:43:32;0.30;;;0.30;;
11082;SDS011;5595;50.186;8.468;2023-08-17T02:45:59;6.38;;;0.50;;
11082;SDS011;5595;50.186;8.468;2023-08-17T02:48:27;1.00;;;0.50;;
11082;SDS011;5595;50.186;8.468;2023-08-17T02:50:54;0.73;;;0.50;;
11082;SDS011;5595;50.186;8.468;2023-08-17T02:53:21;0.43;;;0.43;;
11082;SDS011;5595;50.186;8.468;2023-08-17T02:55:47;3.78;;;0.43;;
11082;SDS011;5595;50.186;8.468;2023-08-17T02:58:14;1.00;;;0.70;;
11082;SDS011;5595;50.186;8.468;2023-08-17T03:00:41;1.33;;;0.55;;
11082;SDS011;5595;50.186;8.468;2023-08-17T03:03:08;0.57;;;0.40;;
11082;SDS011;5595;50.186;8.468;2023-08-17T03:05:36;3.33;;;0.55;;
11082;SDS011;5595;50.186;8.468;2023-08-17T03:08:03;0.40;;;0.40;;
11082;SDS011;5595;50.186;8.468;2023-08-17T03:10:31;1.48;;;0.40;;
11082;SDS011;5595;50.186;8.468;2023-08-17T03:12:58;1.70;;;0.40;;
11082;SDS011;5595;50.186;8.468;2023-08-17T03:15:24;1.45;;;0.60;;
11082;SDS011;5595;50.186;8.468;2023-08-17T03:17:51;0.70;;;0.63;;
11082;SDS011;5595;50.186;8.468;2023-08-17T03:20:18;0.55;;;0.38;;
11082;SDS011;5595;50.186;8.468;2023-08-17T03:22:47;1.02;;;0.60;;
11082;SDS011;5595;50.186;8.468;2023-08-17T03:25:14;0.52;;;0.52;;
11082;SDS011;5595;50.186;8.468;2023-08-17T03:27:41;0.85;;;0.50;;
11082;SDS011;5595;50.186;8.468;2023-08-17T03:30:08;1.33;;;0.60;;
11082;SDS011;5595;50.186;8.468;2023-08-17T03:32:35;0.70;;;0.60;;
11082;SDS011;5595;50.186;8.468;2023-08-17T03:35:02;0.63;;;0.60;;
11082;SDS011;5595;50.186;8.468;2023-08-17T03:37:29;0.88;;;0.57;;
11082;SDS011;5595;50.186;8.468;2023-08-17T03:39:57;0.47;;;0.40;;
11082;SDS011;5595;50.186;8.468;2023-08-17T03:42:25;1.65;;;0.40;;
11082;SDS011;5595;50.186;8.468;2023-08-17T03:44:52;0.55;;;0.40;;
11082;SDS011;5595;50.186;8.468;2023-08-17T03:47:19;0.82;;;0.55;;
11082;SDS011;5595;50.186;8.468;2023-08-17T03:49:46;1.00;;;0.80;;
11082;SDS011;5595;50.186;8.468;2023-08-17T03:52:13;0.70;;;0.70;;
11082;SDS011;5595;50.186;8.468;2023-08-17T03:54:40;1.50;;;0.70;;
11082;SDS011;5595;50.186;8.468;2023-08-17T03:57:08;0.77;;;0.77;;
11082;SDS011;5595;50.186;8.468;2023-08-17T03:59:34;0.50;;;0.50;;
11082;SDS011;5595;50.186;8.468;2023-08-17T04:02:01;0.30;;;0.30;;
11082;SDS011;5595;50.186;8.468;2023-08-17T04:04:28;0.77;;;0.55;;
11082;SDS011;5595;50.186;8.468;2023-08-17T04:06:55;0.90;;;0.60;;
11082;SDS011;5595;50.186;8.468;2023-08-17T04:09:22;0.50;;;0.50;;
11082;SDS011;5595;50.186;8.468;2023-08-17T04:11:49;0.65;;;0.57;;
11082;SDS011;5595;50.186;8.468;2023-08-17T04:14:17;0.60;;;0.60;;
11082;SDS011;5595;50.186;8.468;2023-08-17T04:16:43;2.92;;;0.60;;
11082;SDS011;5595;50.186;8.468;2023-08-17T04:19:10;0.70;;;0.70;;
11082;SDS011;5595;50.186;8.468;2023-08-17T04:21:38;0.50;;;0.50;;
11082;SDS011;5595;50.186;8.468;2023-08-17T04:24:05;0.60;;;0.60;;
11082;SDS011;5595;50.186;8.468;2023-08-17T04:26:32;0.40;;;0.40;;
11082;SDS011;5595;50.186;8.468;2023-08-17T04:28:59;1.48;;;0.63;;
11082;SDS011;5595;50.186;8.468;2023-08-17T04:31:27;0.60;;;0.60;;
11082;SDS011;5595;50.186;8.468;2023-08-17T04:33:54;1.60;;;0.90;;
11082;SDS011;5595;50.186;8.468;2023-08-17T04:36:21;0.88;;;0.73;;
11082;SDS011;5595;50.186;8.468;2023-08-17T04:38:47;0.82;;;0.82;;
11082;SDS011;5595;50.186;8.468;2023-08-17T04:41:14;0.95;;;0.60;;
11082;SDS011;5595;50.186;8.468;2023-08-17T04:43:42;0.45;;;0.45;;
11082;SDS011;5595;50.186;8.468;2023-08-17T04:46:11;1.88;;;0.70;;
11082;SDS011;5595;50.186;8.468;2023-08-17T04:48:39;3.05;;;0.75;;
11082;SDS011;5595;50.186;8.468;2023-08-17T04:51:06;1.23;;;0.80;;
11082;SDS011;5595;50.186;8.468;2023-08-17T04:53:33;0.35;;;0.35;;
11082;SDS011;5595;50.186;8.468;2023-08-17T04:56:00;0.47;;;0.47;;
11082;SDS011;5595;50.186;8.468;2023-08-17T04:58:28;1.23;;;1.05;;
11082;SDS011;5595;50.186;8.468;2023-08-17T05:00:55;1.08;;;0.70;;
11082;SDS011;5595;50.186;8.468;2023-08-17T05:03:22;0.90;;;0.82;;
11082;SDS011;5595;50.186;8.468;2023-08-17T05:05:50;0.85;;;0.60;;
11082;SDS011;5595;50.186;8.468;2023-08-17T05:08:18;0.73;;;0.73;;
11082;SDS011;5595;50.186;8.468;2023-08-17T05:10:47;0.50;;;0.50;;
11082;SDS011;5595;50.186;8.468;2023-08-17T05:13:13;8.07;;;1.33;;
11082;SDS011;5595;50.186;8.468;2023-08-17T05:15:40;2.35;;;0.65;;
11082;SDS011;5595;50.186;8.468;2023-08-17T05:18:07;1.45;;;1.13;;
11082;SDS011;5595;50.186;8.468;2023-08-17T05:20:34;3.28;;;0.70;;
11082;SDS011;5595;50.186;8.468;2023-08-17T05:23:02;0.98;;;0.60;;
11082;SDS011;5595;50.186;8.468;2023-08-17T05:25:30;1.33;;;0.75;;
11082;SDS011;5595;50.186;8.468;2023-08-17T05:27:56;0.80;;;0.80;;
11082;SDS011;5595;50.186;8.468;2023-08-17T05:30:23;0.65;;;0.50;;
11082;SDS011;5595;50.186;8.468;2023-08-17T05:32:50;0.73;;;0.73;;
11082;SDS011;5595;50.186;8.468;2023-08-17T05:35:17;1.15;;;0.73;;
11082;SDS011;5595;50.186;8.468;2023-08-17T05:37:44;0.50;;;0.50;;
11082;SDS011;5595;50.186;8.468;2023-08-17T05:40:12;1.95;;;0.65;;
11082;SDS011;5595;50.186;8.468;2023-08-17T05:42:39;0.55;;;0.50;;
11082;SDS011;5595;50.186;8.468;2023-08-17T05:45:07;1.67;;;0.90;;
11082;SDS011;5595;50.186;8.468;2023-08-17T05:47:34;1.42;;;0.70;;
11082;SDS011;5595;50.186;8.468;2023-08-17T05:50:01;1.08;;;0.47;;
11082;SDS011;5595;50.186;8.468;2023-08-17T05:52:28;0.70;;;0.70;;
11082;SDS011;5595;50.186;8.468;2023-08-17T05:54:55;1.05;;;0.70;;
11082;SDS011;5595;50.186;8.468;2023-08-17T05:57:23;0.82;;;0.60;;
11082;SDS011;5595;50.186;8.468;2023-08-17T05:59:50;1.25;;;0.75;;
11082;SDS011;5595;50.186;8.468;2023-08-17T06:02:16;0.95;;;0.93;;
11082;SDS011;5595;50.186;8.468;2023-08-17T06:04:43;3.05;;;0.80;;
11082;SDS011;5595;50.186;8.468;2023-08-17T06:07:10;1.23;;;0.73;;
11082;SDS011;5595;50.186;8.468;2023-08-17T06:09:37;0.60;;;0.60;;
11082;SDS011;5595;50.186;8.468;2023-08-17T06:12:04;1.05;;;0.80;;
11082;SDS011;5595;50.186;8.468;2023-08-17T06:14:33;1.27;;;0.77;;
11082;SDS011;5595;50.186;8.468;2023-08-17T06:17:00;1.52;;;0.63;;
11082;SDS011;5595;50.186;8.468;2023-08-17T06:19:27;0.68;;;0.68;;
11082;SDS011;5595;50.186;8.468;2023-08-17T06:21:53;0.50;;;0.50;;
11082;SDS011;5595;50.186;8.468;2023-08-17T06:24:20;0.70;;;0.70;;
11082;SDS011;5595;50.186;8.468;2023-08-17T06:26:47;1.00;;;0.65;;
11082;SDS011;5595;50.186;8.468;2023-08-17T06:29:14;1.13;;;0.75;;
11082;SDS011;5595;50.186;8.468;2023-08-17T06:31:42;2.15;;;1.00;;
11082;SDS011;5595;50.186;8.468;2023-08-17T06:34:08;0.80;;;0.80;;
11082;SDS011;5595;50.186;8.468;2023-08-17T06:36:37;1.67;;;0.82;;
11082;SDS011;5595;50.186;8.468;2023-08-17T06:39:04;0.77;;;0.77;;
11082;SDS011;5595;50.186;8.468;2023-08-17T06:41:31;2.05;;;0.80;;
11082;SDS011;5595;50.186;8.468;2023-08-17T06:43:58;1.02;;;0.70;;
11082;SDS011;5595;50.186;8.468;2023-08-17T06:46:25;1.13;;;0.70;;
11082;SDS011;5595;50.186;8.468;2023-08-17T06:48:54;0.80;;;0.80;;
11082;SDS011;5595;50.186;8.468;2023-08-17T06:51:21;1.63;;;0.80;;
11082;SDS011;5595;50.186;8.468;2023-08-17T06:53:47;0.68;;;0.68;;
11082;SDS011;5595;50.186;8.468;2023-08-17T06:56:15;1.00;;;1.00;;
11082;SDS011;5595;50.186;8.468;2023-08-17T06:58:41;1.23;;;1.20;;
11082;SDS011;5595;50.186;8.468;2023-08-17T07:35:15;1.60;;;1.50;;
11082;SDS011;5595;50.186;8.468;2023-08-17T07:37:42;1.42;;;1.15;;
11082;SDS011;5595;50.186;8.468;2023-08-17T07:40:09;1.40;;;1.30;;
11082;SDS011;5595;50.186;8.468;2023-08-17T07:42:36;1.50;;;1.40;;
11082;SDS011;5595;50.186;8.468;2023-08-17T07:45:04;2.13;;;1.60;;
11082;SDS011;5595;50.186;8.468;2023-08-17T07:47:33;1.77;;;1.52;;
11082;SDS011;5595;50.186;8.468;2023-08-17T07:50:01;2.42;;;1.35;;
11082;SDS011;5595;50.186;8.468;2023-08-17T07:52:29;2.10;;;1.73;;
11082;SDS011;5595;50.186;8.468;2023-08-17T07:54:56;1.80;;;1.42;;
11082;SDS011;5595;50.186;8.468;2023-08-17T07:57:23;2.50;;;2.10;;
11082;SDS011;5595;50.186;8.468;2023-08-17T07:59:50;3.40;;;1.92;;
11082;SDS011;5595;50.186;8.468;2023-08-17T08:02:18;1.98;;;1.85;;
11082;SDS011;5595;50.186;8.468;2023-08-17T08:04:45;2.90;;;1.95;;
11082;SDS011;5595;50.186;8.468;2023-08-17T08:07:12;9.50;;;7.00;;
11082;SDS011;5595;50.186;8.468;2023-08-17T08:09:40;9.02;;;7.55;;
11082;SDS011;5595;50.186;8.468;2023-08-17T08:12:07;8.45;;;7.57;;
11082;SDS011;5595;50.186;8.468;2023-08-17T08:14:34;13.38;;;6.95;;
11082;SDS011;5595;50.186;8.468;2023-08-17T08:17:00;8.32;;;7.07;;
11082;SDS011;5595;50.186;8.468;2023-08-17T08:19:27;7.53;;;6.65;;
11082;SDS011;5595;50.186;8.468;2023-08-17T08:21:54;7.57;;;6.85;;
11082;SDS011;5595;50.186;8.468;2023-08-17T08:24:21;8.23;;;7.35;;
11082;SDS011;5595;50.186;8.468;2023-08-17T08:26:49;7.20;;;6.50;;
11082;SDS011;5595;50.186;8.468;2023-08-17T08:29:18;7.00;;;6.30;;
11082;SDS011;5595;50.186;8.468;2023-08-17T08:31:44;6.05;;;4.97;;
11082;SDS011;5595;50.186;8.468;2023-08-17T08:34:11;10.15;;;5.68;;
11082;SDS011;5595;50.186;8.468;2023-08-17T08:36:39;5.35;;;4.85;;
11082;SDS011;5595;50.186;8.468;2023-08-17T08:39:06;5.18;;;4.50;;
11082;SDS011;5595;50.186;8.468;2023-08-17T08:41:32;7.88;;;6.22;;
11082;SDS011;5595;50.186;8.468;2023-08-17T08:44:03;7.50;;;6.63;;
11082;SDS011;5595;50.186;8.468;2023-08-17T08:46:30;7.53;;;6.75;;
11082;SDS011;5595;50.186;8.468;2023-08-17T08:48:58;6.38;;;5.72;;
11082;SDS011;5595;50.186;8.468;2023-08-17T08:51:26;5.05;;;4.55;;
11082;SDS011;5595;50.186;8.468;2023-08-17T08:53:59;3.90;;;3.60;;
11082;SDS011;5595;50.186;8.468;2023-08-17T08:56:33;3.35;;;3.05;;
11082;SDS011;5595;50.186;8.468;2023-08-17T08:59:05;3.42;;;3.13;;
11082;SDS011;5595;50.186;8.468;2023-08-17T09:01:32;3.28;;;2.67;;
11082;SDS011;5595;50.186;8.468;2023-08-17T09:03:59;2.90;;;2.70;;
11082;SDS011;5595;50.186;8.468;2023-08-17T09:06:26;2.70;;;2.50;;
11082;SDS011;5595;50.186;8.468;2023-08-17T09:08:55;2.38;;;2.20;;
11082;SDS011;5595;50.186;8.468;2023-08-17T09:11:23;1.95;;;1.85;;
11082;SDS011;5595;50.186;8.468;2023-08-17T09:13:50;1.65;;;1.55;;
11082;SDS011;5595;50.186;8.468;2023-08-17T09:16:19;2.50;;;2.30;;
11082;SDS011;5595;50.186;8.468;2023-08-17T09:18:46;1.98;;;1.88;;
11082;SDS011;5595;50.186;8.468;2023-08-17T09:21:19;2.65;;;2.45;;
11082;SDS011;5595;50.186;8.468;2023-08-17T09:23:50;1.73;;;1.63;;
11082;SDS011;5595;50.186;8.468;2023-08-17T09:26:17;1.67;;;1.58;;
11082;SDS011;5595;50.186;8.468;2023-08-17T09:28:47;1.98;;;1.70;;
11082;SDS011;5595;50.186;8.468;2023-08-17T09:31:14;2.72;;;2.50;;
11082;SDS011;5595;50.186;8.468;2023-08-17T09:33:42;1.60;;;1.50;;
11082;SDS011;5595;50.186;8.468;2023-08-17T09:36:09;2.75;;;2.53;;
11082;SDS011;5595;50.186;8.468;2023-08-17T09:38:37;2.45;;;2.25;;
11082;SDS011;5595;50.186;8.468;2023-08-17T09:41:04;2.20;;;2.00;;
11082;SDS011;5595;50.186;8.468;2023-08-17T09:43:31;1.70;;;1.60;;
11082;SDS011;5595;50.186;8.468;2023-08-17T09:45:59;2.13;;;1.95;;
11082;SDS011;5595;50.186;8.468;2023-08-17T09:48:28;1.70;;;1.60;;
11082;SDS011;5595;50.186;8.468;2023-08-17T09:50:56;1.23;;;1.17;;
11082;SDS011;5595;50.186;8.468;2023-08-17T09:53:24;1.50;;;1.50;;
11082;SDS011;5595;50.186;8.468;2023-08-17T09:55:51;2.08;;;1.98;;
11082;SDS011;5595;50.186;8.468;2023-08-17T09:58:20;2.70;;;2.42;;
11082;SDS011;5595;50.186;8.468;2023-08-17T10:00:47;2.10;;;2.00;;
11082;SDS011;5595;50.186;8.468;2023-08-17T10:03:16;1.60;;;1.50;;
11082;SDS011;5595;50.186;8.468;2023-08-17T10:05:44;2.30;;;2.10;;
11082;SDS011;5595;50.186;8.468;2023-08-17T10:08:16;2.03;;;1.80;;
11082;SDS011;5595;50.186;8.468;2023-08-17T10:10:46;1.50;;;1.40;;
11082;SDS011;5595;50.186;8.468;2023-08-17T10:13:16;1.20;;;1.20;;
11082;SDS011;5595;50.186;8.468;2023-08-17T10:15:53;1.48;;;1.48;;
11082;SDS011;5595;50.186;8.468;2023-08-17T10:18:29;1.70;;;1.60;;
11082;SDS011;5595;50.186;8.468;2023-08-17T10:21:02;1.10;;;1.10;;
11082;SDS011;5595;50.186;8.468;2023-08-17T10:23:34;1.98;;;1.50;;
11082;SDS011;5595;50.186;8.468;2023-08-17T10:26:01;2.13;;;1.17;;
11082;SDS011;5595;50.186;8.468;2023-08-17T10:28:30;1.40;;;1.40;;
11082;SDS011;5595;50.186;8.468;2023-08-17T10:30:58;1.63;;;1.48;;
11082;SDS011;5595;50.186;8.468;2023-08-17T10:33:25;1.40;;;1.33;;
11082;SDS011;5595;50.186;8.468;2023-08-17T10:35:53;1.00;;;0.90;;
11082;SDS011;5595;50.186;8.468;2023-08-17T10:38:21;1.13;;;1.10;;
11082;SDS011;5595;50.186;8.468;2023-08-17T10:41:06;1.55;;;1.00;;
11082;SDS011;5595;50.186;8.468;2023-08-17T10:43:35;1.05;;;0.68;;
11082;SDS011;5595;50.186;8.468;2023-08-17T10:46:18;0.80;;;0.80;;
11082;SDS011;5595;50.186;8.468;2023-08-17T10:48:45;0.88;;;0.85;;
11082;SDS011;5595;50.186;8.468;2023-08-17T10:51:12;0.90;;;0.90;;
11082;SDS011;5595;50.186;8.468;2023-08-17T10:53:40;0.80;;;0.80;;
11082;SDS011;5595;50.186;8.468;2023-08-17T10:56:12;1.00;;;0.90;;
11082;SDS011;5595;50.186;8.468;2023-08-17T10:58:40;0.70;;;0.70;;
11082;SDS011;5595;50.186;8.468;2023-08-17T11:01:08;0.93;;;0.90;;
11082;SDS011;5595;50.186;8.468;2023-08-17T11:03:36;0.70;;;0.70;;
11082;SDS011;5595;50.186;8.468;2023-08-17T11:06:15;0.95;;;0.70;;
11082;SDS011;5595;50.186;8.468;2023-08-17T11:08:53;0.77;;;0.75;;
11082;SDS011;5595;50.186;8.468;2023-08-17T11:11:22;1.00;;;0.80;;
11082;SDS011;5595;50.186;8.468;2023-08-17T11:13:49;0.95;;;0.82;;
11082;SDS011;5595;50.186;8.468;2023-08-17T11:16:26;1.45;;;0.80;;
11082;SDS011;5595;50.186;8.468;2023-08-17T11:19:46;0.90;;;0.90;;
11082;SDS011;5595;50.186;8.468;2023-08-17T11:22:16;0.70;;;0.60;;
11082;SDS011;5595;50.186;8.468;2023-08-17T11:24:43;1.60;;;1.27;;
11082;SDS011;5595;50.186;8.468;2023-08-17T11:27:11;0.80;;;0.80;;
11082;SDS011;5595;50.186;8.468;2023-08-17T11:29:38;2.30;;;1.02;;
11082;SDS011;5595;50.186;8.468;2023-08-17T11:32:05;1.38;;;0.90;;
11082;SDS011;5595;50.186;8.468;2023-08-17T11:34:32;1.10;;;1.10;;
11082;SDS011;5595;50.186;8.468;2023-08-17T11:36:58;0.75;;;0.75;;
11082;SDS011;5595;50.186;8.468;2023-08-17T11:39:25;0.70;;;0.70;;
11082;SDS011;5595;50.186;8.468;2023-08-17T11:41:52;0.95;;;0.95;;
11082;SDS011;5595;50.186;8.468;2023-08-17T11:44:20;1.00;;;0.95;;
11082;SDS011;5595;50.186;8.468;2023-08-17T11:46:47;0.70;;;0.70;;
11082;SDS011;5595;50.186;8.468;2023-08-17T11:49:14;2.22;;;0.73;;
11082;SDS011;5595;50.186;8.468;2023-08-17T11:51:41;0.60;;;0.60;;
11082;SDS011;5595;50.186;8.468;2023-08-17T11:54:07;1.17;;;0.70;;
11082;SDS011;5595;50.186;8.468;2023-08-17T11:56:34;0.70;;;0.60;;
11082;SDS011;5595;50.186;8.468;2023-08-17T11:59:08;0.60;;;0.60;;
11082;SDS011;5595;50.186;8.468;2023-08-17T12:01:37;0.77;;;0.77;;
11082;SDS011;5595;50.186;8.468;2023-08-17T12:04:04;0.68;;;0.60;;
11082;SDS011;5595;50.186;8.468;2023-08-17T12:06:31;1.20;;;0.60;;
11082;SDS011;5595;50.186;8.468;2023-08-17T12:08:58;0.65;;;0.65;;
11082;SDS011;5595;50.186;8.468;2023-08-17T12:11:25;0.60;;;0.60;;
11082;SDS011;5595;50.186;8.468;2023-08-17T12:13:52;0.82;;;0.60;;
11082;SDS011;5595;50.186;8.468;2023-08-17T12:16:19;0.60;;;0.60;;
11082;SDS011;5595;50.186;8.468;2023-08-17T12:18:48;0.70;;;0.60;;
11082;SDS011;5595;50.186;8.468;2023-08-17T12:21:15;0.70;;;0.70;;
11082;SDS011;5595;50.186;8.468;2023-08-17T12:23:42;0.70;;;0.70;;
11082;SDS011;5595;50.186;8.468;2023-08-17T12:26:09;0.60;;;0.60;;
11082;SDS011;5595;50.186;8.468;2023-08-17T12:28:35;0.50;;;0.50;;
11082;SDS011;5595;50.186;8.468;2023-08-17T12:31:02;0.50;;;0.50;;
11082;SDS011;5595;50.186;8.468;2023-08-17T12:33:29;0.40;;;0.40;;
11082;SDS011;5595;50.186;8.468;2023-08-17T12:35:58;0.75;;;0.50;;
11082;SDS011;5595;50.186;8.468;2023-08-17T12:38:24;0.50;;;0.50;;
11082;SDS011;5595;50.186;8.468;2023-08-17T12:40:51;0.57;;;0.57;;
11082;SDS011;5595;50.186;8.468;2023-08-17T12:43:18;0.70;;;0.70;;
11082;SDS011;5595;50.186;8.468;2023-08-17T12:45:45;0.40;;;0.40;;
11082;SDS011;5595;50.186;8.468;2023-08-17T12:48:12;0.47;;;0.47;;
11082;SDS011;5595;50.186;8.468;2023-08-17T12:50:38;0.45;;;0.45;;
11082;SDS011;5595;50.186;8.468;2023-08-17T12:53:07;0.45;;;0.45;;
11082;SDS011;5595;50.186;8.468;2023-08-17T12:55:33;0.52;;;0.52;;
11082;SDS011;5595;50.186;8.468;2023-08-17T12:58:00;0.50;;;0.50;;
11082;SDS011;5595;50.186;8.468;2023-08-17T13:00:28;0.32;;;0.32;;
11082;SDS011;5595;50.186;8.468;2023-08-17T13:02:55;0.50;;;0.50;;
11082;SDS011;5595;50.186;8.468;2023-08-17T13:05:22;0.50;;;0.50;;
11082;SDS011;5595;50.186;8.468;2023-08-17T13:07:49;0.40;;;0.40;;
11082;SDS011;5595;50.186;8.468;2023-08-17T13:10:17;0.90;;;0.52;;
11082;SDS011;5595;50.186;8.468;2023-08-17T13:12:44;0.55;;;0.55;;
11082;SDS011;5595;50.186;8.468;2023-08-17T13:15:12;0.32;;;0.30;;
11082;SDS011;5595;50.186;8.468;2023-08-17T13:17:39;0.82;;;0.60;;
11082;SDS011;5595;50.186;8.468;2023-08-17T13:20:06;0.73;;;0.73;;
11082;SDS011;5595;50.186;8.468;2023-08-17T13:22:34;0.50;;;0.50;;
11082;SDS011;5595;50.186;8.468;2023-08-17T13:25:01;0.50;;;0.50;;
11082;SDS011;5595;50.186;8.468;2023-08-17T13:27:29;0.50;;;0.50;;
11082;SDS011;5595;50.186;8.468;2023-08-17T13:29:56;0.60;;;0.60;;
11082;SDS011;5595;50.186;8.468;2023-08-17T13:32:23;0.50;;;0.50;;
11082;SDS011;5595;50.186;8.468;2023-08-17T13:34:50;0.50;;;0.50;;
11082;SDS011;5595;50.186;8.468;2023-08-17T13:37:17;0.50;;;0.50;;
11082;SDS011;5595;50.186;8.468;2023-08-17T13:39:45;0.50;;;0.50;;
11082;SDS011;5595;50.186;8.468;2023-08-17T13:42:12;0.50;;;0.50;;
11082;SDS011;5595;50.186;8.468;2023-08-17T13:44:40;0.60;;;0.60;;
11082;SDS011;5595;50.186;8.468;2023-08-17T13:47:07;0.50;;;0.50;;
11082;SDS011;5595;50.186;8.468;2023-08-17T13:49:34;0.57;;;0.40;;
11082;SDS011;5595;50.186;8.468;2023-08-17T13:52:01;1.48;;;0.50;;
11082;SDS011;5595;50.186;8.468;2023-08-17T13:54:27;0.90;;;0.50;;
11082;SDS011;5595;50.186;8.468;2023-08-17T13:56:54;2.78;;;0.75;;
11082;SDS011;5595;50.186;8.468;2023-08-17T13:59:21;1.65;;;0.50;;
11082;SDS011;5595;50.186;8.468;2023-08-17T14:01:49;1.05;;;0.50;;
11082;SDS011;5595;50.186;8.468;2023-08-17T14:04:16;1.42;;;0.50;;
11082;SDS011;5595;50.186;8.468;2023-08-17T14:06:43;0.50;;;0.50;;
11082;SDS011;5595;50.186;8.468;2023-08-17T14:09:10;1.00;;;0.70;;
11082;SDS011;5595;50.186;8.468;2023-08-17T14:11:37;1.27;;;0.50;;
11082;SDS011;5595;50.186;8.468;2023-08-17T14:14:04;0.57;;;0.57;;
11082;SDS011;5595;50.186;8.468;2023-08-17T14:16:30;0.60;;;0.60;;
11082;SDS011;5595;50.186;8.468;2023-08-17T14:18:59;0.50;;;0.40;;
11082;SDS011;5595;50.186;8.468;2023-08-17T14:21:25;0.70;;;0.50;;
11082;SDS011;5595;50.186;8.468;2023-08-17T14:23:52;0.50;;;0.50;;
11082;SDS011;5595;50.186;8.468;2023-08-17T14:26:19;0.50;;;0.50;;
11082;SDS011;5595;50.186;8.468;2023-08-17T14:28:46;0.93;;;0.60;;
11082;SDS011;5595;50.186;8.468;2023-08-17T14:31:12;0.75;;;0.70;;
11082;SDS011;5595;50.186;8.468;2023-08-17T14:33:42;0.82;;;0.60;;
11082;SDS011;5595;50.186;8.468;2023-08-17T14:36:10;0.88;;;0.63;;
11082;SDS011;5595;50.186;8.468;2023-08-17T14:38:37;0.45;;;0.40;;
11082;SDS011;5595;50.186;8.468;2023-08-17T14:41:04;0.60;;;0.60;;
11082;SDS011;5595;50.186;8.468;2023-08-17T14:43:32;0.60;;;0.60;;
11082;SDS011;5595;50.186;8.468;2023-08-17T14:45:59;0.70;;;0.60;;
11082;SDS011;5595;50.186;8.468;2023-08-17T14:48:26;0.50;;;0.50;;
11082;SDS011;5595;50.186;8.468;2023-08-17T14:50:53;0.50;;;0.50;;
11082;SDS011;5595;50.186;8.468;2023-08-17T14:53:22;0.50;;;0.50;;
11082;SDS011;5595;50.186;8.468;2023-08-17T14:55:48;0.75;;;0.70;;
11082;SDS011;5595;50.186;8.468;2023-08-17T14:58:15;3.05;;;0.43;;
11082;SDS011;5595;50.186;8.468;2023-08-17T15:00:43;0.50;;;0.50;;
11082;SDS011;5595;50.186;8.468;2023-08-17T15:03:10;0.85;;;0.60;;
11082;SDS011;5595;50.186;8.468;2023-08-17T15:05:39;0.47;;;0.47;;
11082;SDS011;5595;50.186;8.468;2023-08-17T15:08:06;0.70;;;0.70;;
11082;SDS011;5595;50.186;8.468;2023-08-17T15:10:34;0.50;;;0.50;;
11082;SDS011;5595;50.186;8.468;2023-08-17T15:13:01;0.52;;;0.52;;
11082;SDS011;5595;50.186;8.468;2023-08-17T15:15:28;0.65;;;0.60;;
11082;SDS011;5595;50.186;8.468;2023-08-17T15:17:55;0.77;;;0.55;;
11082;SDS011;5595;50.186;8.468;2023-08-17T15:20:22;4.93;;;0.60;;
11082;SDS011;5595;50.186;8.468;2023-08-17T15:22:48;0.70;;;0.70;;
11082;SDS011;5595;50.186;8.468;2023-08-17T15:25:15;0.85;;;0.85;;
11082;SDS011;5595;50.186;8.468;2023-08-17T15:27:43;0.90;;;0.90;;
11082;SDS011;5595;50.186;8.468;2023-08-17T15:30:11;0.60;;;0.60;;
11082;SDS011;5595;50.186;8.468;2023-08-17T15:32:38;0.80;;;0.73;;
11082;SDS011;5595;50.186;8.468;2023-08-17T15:35:05;1.13;;;0.73;;
11082;SDS011;5595;50.186;8.468;2023-08-17T15:37:33;0.85;;;0.85;;
11082;SDS011;5595;50.186;8.468;2023-08-17T15:40:02;0.80;;;0.80;;
11082;SDS011;5595;50.186;8.468;2023-08-17T15:42:32;0.70;;;0.70;;
11082;SDS011;5595;50.186;8.468;2023-08-17T15:45:03;0.75;;;0.75;;
11082;SDS011;5595;50.186;8.468;2023-08-17T15:47:33;0.60;;;0.60;;
11082;SDS011;5595;50.186;8.468;2023-08-17T15:50:00;0.55;;;0.55;;
11082;SDS011;5595;50.186;8.468;2023-08-17T15:52:27;1.77;;;0.70;;
11082;SDS011;5595;50.186;8.468;2023-08-17T15:54:56;1.23;;;1.00;;
11082;SDS011;5595;50.186;8.468;2023-08-17T15:57:23;0.82;;;0.80;;
11082;SDS011;5595;50.186;8.468;2023-08-17T15:59:50;1.35;;;0.90;;
11082;SDS011;5595;50.186;8.468;2023-08-17T16:02:18;0.70;;;0.70;;
11082;SDS011;5595;50.186;8.468;2023-08-17T16:04:47;1.00;;;0.88;;
11082;SDS011;5595;50.186;8.468;2023-08-17T16:07:14;1.95;;;0.60;;
11082;SDS011;5595;50.186;8.468;2023-08-17T16:09:41;0.65;;;0.65;;
11082;SDS011;5595;50.186;8.468;2023-08-17T16:12:08;0.60;;;0.60;;
11082;SDS011;5595;50.186;8.468;2023-08-17T16:14:35;0.65;;;0.65;;
11082;SDS011;5595;50.186;8.468;2023-08-17T16:17:02;0.80;;;0.80;;
11082;SDS011;5595;50.186;8.468;2023-08-17T16:19:31;0.70;;;0.70;;
11082;SDS011;5595;50.186;8.468;2023-08-17T16:21:57;0.70;;;0.70;;
11082;SDS011;5595;50.186;8.468;2023-08-17T16:24:24;0.70;;;0.70;;
11082;SDS011;5595;50.186;8.468;2023-08-17T16:26:51;0.60;;;0.60;;
11082;SDS011;5595;50.186;8.468;2023-08-17T16:29:18;1.70;;;0.98;;
11082;SDS011;5595;50.186;8.468;2023-08-17T16:31:58;1.38;;;1.10;;
11082;SDS011;5595;50.186;8.468;2023-08-17T16:34:25;1.42;;;0.85;;